createdAt,value
2019-01-30T00:01:31.120Z,-1.40
2019-01-30T00:04:01.425Z,-1.40
2019-01-30T00:06:36.465Z,-1.40
2019-01-30T00:09:14.922Z,-1.40
2019-01-30T00:11:50.245Z,-1.50
2019-01-30T00:14:21.154Z,-1.50
2019-01-30T00:16:58.679Z,-1.50
2019-01-30T00:19:28.525Z,-1.50
2019-01-30T00:21:59.122Z,-1.50
2019-01-30T00:24:45.330Z,-1.50
2019-01-30T00:27:15.837Z,-1.60
2019-01-30T00:29:53.037Z,-1.60
2019-01-30T00:32:23.814Z,-1.60
2019-01-30T00:34:56.199Z,-1.50
2019-01-30T00:37:28.618Z,-1.50
2019-01-30T00:39:59.484Z,-1.40
2019-01-30T00:42:42.181Z,-1.50
2019-01-30T00:45:26.623Z,-1.50
2019-01-30T00:47:56.688Z,-1.50
2019-01-30T00:50:27.249Z,-1.50
2019-01-30T00:53:01.028Z,-1.50
2019-01-30T00:55:31.010Z,-1.50
2019-01-30T00:58:01.112Z,-1.60
2019-01-30T01:00:31.985Z,-1.50
2019-01-30T01:03:08.487Z,-1.60
2019-01-30T01:05:34.855Z,-1.60
2019-01-30T01:08:10.714Z,-1.60
2019-01-30T01:10:43.720Z,-1.60
2019-01-30T01:13:16.202Z,-1.60
2019-01-30T01:15:49.100Z,-1.60
2019-01-30T01:18:25.584Z,-1.60
2019-01-30T01:20:56.570Z,-1.60
2019-01-30T01:23:30.858Z,-1.60
2019-01-30T01:26:03.764Z,-1.60
2019-01-30T01:28:49.570Z,-1.60
2019-01-30T01:31:28.459Z,-1.60
2019-01-30T01:33:59.873Z,-1.60
2019-01-30T01:36:44.115Z,-1.50
2019-01-30T01:39:17.037Z,-1.40
2019-01-30T01:41:51.841Z,-1.40
2019-01-30T01:44:33.102Z,-1.30
2019-01-30T01:47:24.174Z,-1.30
2019-01-30T01:49:54.976Z,-1.30
2019-01-30T01:52:39.530Z,-1.40
2019-01-30T01:55:14.461Z,-1.30
2019-01-30T01:57:45.281Z,-1.30
2019-01-30T02:00:20.304Z,-1.20
2019-01-30T02:02:50.574Z,-1.30
2019-01-30T02:05:23.530Z,-1.20
2019-01-30T02:07:54.134Z,-1.10
2019-01-30T02:10:26.178Z,-1.10
2019-01-30T02:13:04.221Z,-1.00
2019-01-30T02:15:34.165Z,-1.00
2019-01-30T02:18:04.717Z,-0.90
2019-01-30T02:20:37.714Z,-0.90
2019-01-30T02:23:08.676Z,-0.90
2019-01-30T02:25:40.087Z,-0.90
2019-01-30T02:28:15.841Z,-0.90
2019-01-30T02:30:47.686Z,-0.90
2019-01-30T02:33:20.584Z,-0.90
2019-01-30T02:35:50.438Z,-1.00
2019-01-30T02:38:21.236Z,-1.10
2019-01-30T02:40:54.659Z,-1.10
2019-01-30T02:43:29.871Z,-1.10
2019-01-30T02:46:10.027Z,-1.00
2019-01-30T02:48:43.388Z,-0.90
2019-01-30T02:51:14.706Z,-1.00
2019-01-30T02:53:52.321Z,-0.90
2019-01-30T02:56:23.316Z,-0.90
2019-01-30T02:58:53.070Z,-0.90
2019-01-30T03:01:26.523Z,-0.80
2019-01-30T03:03:56.784Z,-0.80
2019-01-30T03:06:26.850Z,-0.80
2019-01-30T03:08:57.710Z,-0.80
2019-01-30T03:11:28.930Z,-0.70
2019-01-30T03:13:58.682Z,-0.80
2019-01-30T03:16:32.104Z,-0.70
2019-01-30T03:19:08.002Z,-0.80
2019-01-30T03:21:38.123Z,-0.80
2019-01-30T03:24:08.106Z,-0.70
2019-01-30T03:26:38.332Z,-0.70
2019-01-30T03:29:10.574Z,-0.70
2019-01-30T03:31:40.799Z,-0.70
2019-01-30T03:34:11.947Z,-0.80
2019-01-30T03:36:46.088Z,-0.80
2019-01-30T03:39:17.000Z,-0.70
2019-01-30T03:41:47.268Z,-0.70
2019-01-30T03:44:17.301Z,-0.70
2019-01-30T03:46:47.148Z,-0.80
2019-01-30T03:49:17.358Z,-0.70
2019-01-30T03:51:47.367Z,-0.70
2019-01-30T03:54:23.618Z,-0.70
2019-01-30T03:56:55.534Z,-0.70
2019-01-30T03:59:30.537Z,-0.70
2019-01-30T04:02:04.735Z,-0.70
2019-01-30T04:04:38.466Z,-0.70
2019-01-30T04:07:11.103Z,-0.70
2019-01-30T04:09:49.027Z,-0.70
2019-01-30T04:12:26.315Z,-0.70
2019-01-30T04:14:59.043Z,-0.70
2019-01-30T04:17:29.296Z,-0.80
2019-01-30T04:20:08.129Z,-0.70
2019-01-30T04:22:38.826Z,-0.70
2019-01-30T04:25:09.571Z,-0.60
2019-01-30T04:27:41.286Z,-0.70
2019-01-30T04:30:15.159Z,-0.60
2019-01-30T04:36:29.443Z,-0.70
2019-01-30T04:38:59.845Z,-0.70
2019-01-30T04:41:33.313Z,-0.70
2019-01-30T04:44:03.950Z,-0.70
2019-01-30T04:46:34.766Z,-0.60
2019-01-30T04:49:14.577Z,-0.50
2019-01-30T04:51:45.860Z,-0.50
2019-01-30T04:54:21.905Z,-0.50
2019-01-30T04:56:52.281Z,-0.50
2019-01-30T04:59:22.215Z,-0.50
2019-01-30T05:01:53.231Z,-0.40
2019-01-30T05:04:25.171Z,-0.30
2019-01-30T05:07:02.307Z,-0.40
2019-01-30T05:09:32.988Z,-0.40
2019-01-30T05:12:02.982Z,-0.40
2019-01-30T05:14:33.677Z,-0.40
2019-01-30T05:17:06.089Z,-0.30
2019-01-30T05:19:36.976Z,-0.30
2019-01-30T05:22:08.762Z,-0.30
2019-01-30T05:24:47.097Z,-0.40
2019-01-30T05:27:17.913Z,-0.40
2019-01-30T05:30:02.475Z,-0.30
2019-01-30T05:32:34.187Z,-0.40
2019-01-30T05:35:11.527Z,-0.40
2019-01-30T05:37:42.111Z,-0.40
2019-01-30T05:40:13.841Z,-0.40
2019-01-30T05:42:44.124Z,-0.40
2019-01-30T05:45:20.129Z,-0.40
2019-01-30T05:47:47.509Z,-0.50
2019-01-30T05:50:23.160Z,-0.20
2019-01-30T06:24:21.268Z,-0.50
2019-01-30T06:26:58.806Z,-0.50
2019-01-30T06:29:31.106Z,-0.50
2019-01-30T06:32:58.795Z,-0.50
2019-01-30T06:36:33.771Z,-0.50
2019-01-30T06:39:30.062Z,-0.50
2019-01-30T06:46:10.968Z,-0.50
2019-01-30T06:52:09.231Z,-0.50
2019-01-30T07:06:44.592Z,-0.40
2019-01-30T07:25:54.414Z,-0.40
2019-01-30T07:46:31.298Z,-0.50
2019-01-30T07:49:03.009Z,-0.40
2019-01-30T07:52:03.043Z,-0.30
2019-01-30T07:54:47.320Z,-0.20
2019-01-30T07:57:18.742Z,-0.20
2019-01-30T07:59:57.997Z,-0.20
2019-01-30T08:02:28.437Z,-0.20
2019-01-30T08:04:58.844Z,-0.20
2019-01-30T08:07:30.909Z,-0.10
2019-01-30T08:10:01.122Z,-0.10
2019-01-30T08:12:30.952Z,-0.10
2019-01-30T08:15:01.095Z,-0.10
2019-01-30T08:17:30.577Z,0.00
2019-01-30T08:20:01.096Z,0.10
2019-01-30T08:22:41.287Z,0.10
2019-01-30T08:25:12.699Z,0.00
2019-01-30T08:27:47.787Z,0.10
2019-01-30T08:30:22.539Z,0.00
2019-01-30T08:32:57.505Z,0.00
2019-01-30T08:35:26.107Z,0.10
2019-01-30T08:37:55.789Z,0.20
2019-01-30T08:40:30.018Z,0.20
2019-01-30T08:43:06.741Z,0.20
2019-01-30T08:46:03.868Z,0.30
2019-01-30T08:49:00.175Z,0.30
2019-01-30T08:51:34.271Z,0.40
2019-01-30T08:54:41.726Z,0.40
2019-01-30T08:57:13.384Z,0.50
2019-01-30T08:59:45.808Z,0.50
2019-01-30T09:02:15.576Z,0.60
2019-01-30T09:04:53.064Z,0.70
2019-01-30T09:07:24.897Z,0.70
2019-01-30T09:09:54.462Z,0.80
2019-01-30T09:12:24.892Z,0.80
2019-01-30T09:14:55.345Z,0.90
2019-01-30T09:17:26.013Z,0.90
2019-01-30T09:19:56.459Z,0.90
2019-01-30T09:22:26.448Z,0.90
2019-01-30T09:24:58.363Z,0.90
2019-01-30T09:27:29.302Z,1.00
2019-01-30T09:30:02.663Z,1.00
2019-01-30T09:32:43.112Z,1.10
2019-01-30T09:35:14.917Z,1.10
2019-01-30T09:37:45.035Z,1.00
2019-01-30T09:40:15.707Z,1.10
2019-01-30T09:42:45.935Z,1.10
2019-01-30T09:45:22.831Z,1.20
2019-01-30T09:47:57.913Z,1.30
2019-01-30T09:50:30.736Z,1.30
2019-01-30T09:53:01.238Z,1.40
2019-01-30T09:55:30.999Z,1.50
2019-01-30T09:58:02.614Z,1.70
2019-01-30T10:00:37.039Z,1.80
2019-01-30T10:03:23.649Z,1.90
2019-01-30T10:05:59.113Z,1.90
2019-01-30T10:08:30.224Z,2.00
2019-01-30T10:11:08.132Z,2.00
2019-01-30T10:13:38.092Z,2.00
2019-01-30T10:16:09.730Z,2.00
2019-01-30T10:18:44.921Z,2.00
2019-01-30T10:21:17.442Z,2.00
2019-01-30T10:23:51.344Z,2.00
2019-01-30T10:26:21.432Z,2.00
2019-01-30T10:28:51.509Z,2.00
2019-01-30T10:31:21.576Z,2.00
2019-01-30T10:33:51.651Z,2.10
2019-01-30T10:36:23.750Z,2.20
2019-01-30T10:38:54.499Z,2.20
2019-01-30T10:41:28.218Z,2.20
2019-01-30T10:43:58.674Z,2.30
2019-01-30T10:46:34.813Z,2.40
2019-01-30T10:49:04.653Z,2.50
2019-01-30T10:51:35.701Z,2.50
2019-01-30T10:54:06.558Z,2.40
2019-01-30T10:56:36.871Z,2.40
2019-01-30T10:59:06.877Z,2.30
2019-01-30T11:01:50.975Z,2.40
2019-01-30T11:04:30.726Z,2.30
2019-01-30T11:07:02.783Z,2.40
2019-01-30T11:09:35.898Z,2.40
2019-01-30T11:12:06.692Z,2.50
2019-01-30T11:14:40.949Z,2.50
2019-01-30T11:17:10.262Z,2.50
2019-01-30T11:19:40.891Z,2.50
2019-01-30T11:22:11.997Z,2.50
2019-01-30T11:24:41.595Z,2.50
2019-01-30T11:27:11.840Z,2.50
2019-01-30T11:29:46.045Z,2.50
2019-01-30T11:32:15.949Z,2.40
2019-01-30T11:34:45.597Z,2.40
2019-01-30T11:37:15.331Z,2.30
2019-01-30T11:39:45.459Z,2.30
2019-01-30T11:42:16.625Z,2.20
2019-01-30T11:44:46.832Z,2.20
2019-01-30T11:47:16.878Z,2.10
2019-01-30T11:49:47.097Z,2.20
2019-01-30T11:52:17.041Z,2.10
2019-01-30T11:54:49.094Z,2.00
2019-01-30T11:57:18.686Z,2.00
2019-01-30T11:59:48.207Z,2.00
2019-01-30T12:02:17.819Z,2.00
2019-01-30T12:04:48.016Z,2.00
2019-01-30T12:07:18.222Z,2.10
2019-01-30T12:09:48.290Z,2.10
2019-01-30T12:12:18.516Z,2.10
2019-01-30T12:14:48.410Z,2.10
2019-01-30T12:17:18.163Z,2.10
2019-01-30T12:19:48.122Z,2.10
2019-01-30T12:22:17.880Z,2.00
2019-01-30T12:24:47.772Z,2.00
2019-01-30T12:27:17.919Z,2.10
2019-01-30T12:30:00.381Z,2.20
2019-01-30T12:32:30.179Z,2.30
2019-01-30T12:35:00.397Z,2.40
2019-01-30T12:37:30.619Z,2.60
2019-01-30T12:40:00.852Z,2.70
2019-01-30T12:42:31.332Z,2.70
2019-01-30T12:45:04.147Z,2.60
2019-01-30T12:47:37.271Z,2.60
2019-01-30T12:50:11.942Z,2.50
2019-01-30T12:52:43.915Z,2.30
2019-01-30T12:55:24.133Z,2.20
2019-01-30T12:58:05.585Z,2.30
2019-01-30T13:00:38.729Z,2.30
2019-01-30T13:03:16.404Z,2.30
2019-01-30T13:05:50.381Z,2.30
2019-01-30T13:11:43.626Z,2.10
2019-01-30T13:14:16.434Z,2.10
2019-01-30T13:16:46.694Z,2.10
2019-01-30T13:19:17.332Z,1.90
2019-01-30T13:21:47.867Z,2.00
2019-01-30T13:24:18.481Z,2.10
2019-01-30T13:26:48.473Z,2.10
2019-01-30T13:29:18.904Z,2.10
2019-01-30T13:31:48.690Z,2.20
2019-01-30T13:34:18.709Z,2.20
2019-01-30T13:36:48.628Z,2.20
2019-01-30T13:39:18.483Z,2.20
2019-01-30T13:41:48.870Z,2.20
2019-01-30T13:44:23.753Z,2.20
2019-01-30T13:46:55.202Z,2.20
2019-01-30T13:49:25.534Z,2.10
2019-01-30T13:51:56.020Z,2.10
2019-01-30T13:54:26.490Z,2.00
2019-01-30T13:56:58.534Z,1.90
2019-01-30T13:59:32.399Z,1.90
2019-01-30T14:02:02.672Z,1.80
2019-01-30T14:04:38.066Z,1.90
2019-01-30T14:07:11.804Z,2.00
2019-01-30T14:09:42.185Z,1.90
2019-01-30T14:12:12.002Z,1.80
2019-01-30T14:14:42.016Z,1.70
2019-01-30T14:17:17.378Z,1.60
2019-01-30T14:19:48.811Z,1.60
2019-01-30T14:22:20.521Z,1.60
2019-01-30T14:24:51.699Z,1.60
2019-01-30T14:27:21.696Z,1.60
2019-01-30T14:29:58.188Z,1.60
2019-01-30T14:32:25.400Z,1.50
2019-01-30T14:34:55.400Z,1.60
2019-01-30T14:37:25.693Z,1.60
2019-01-30T14:40:05.482Z,1.60
2019-01-30T14:43:02.627Z,1.60
2019-01-30T14:45:33.062Z,1.40
2019-01-30T14:48:07.920Z,1.40
2019-01-30T14:50:43.160Z,1.30
2019-01-30T14:53:13.052Z,1.20
2019-01-30T14:55:43.007Z,1.20
2019-01-30T14:58:13.611Z,1.30
2019-01-30T15:00:43.609Z,1.30
2019-01-30T15:03:13.553Z,1.30
2019-01-30T15:05:44.439Z,1.40
2019-01-30T15:08:14.181Z,1.30
2019-01-30T15:10:43.816Z,1.30
2019-01-30T15:13:13.980Z,1.40
2019-01-30T15:15:44.245Z,1.40
2019-01-30T15:18:15.610Z,1.40
2019-01-30T15:20:48.240Z,1.30
2019-01-30T15:23:18.941Z,1.40
2019-01-30T15:25:49.707Z,1.50
2019-01-30T15:28:20.309Z,1.40
2019-01-30T15:30:50.404Z,1.50
2019-01-30T15:33:20.306Z,1.50
2019-01-30T15:35:50.320Z,1.40
2019-01-30T15:38:20.961Z,1.40
2019-01-30T15:40:51.316Z,1.30
2019-01-30T15:43:22.009Z,1.40
2019-01-30T15:46:08.840Z,1.30
2019-01-30T15:48:40.892Z,1.20
2019-01-30T15:51:11.382Z,1.10
2019-01-30T15:53:43.823Z,1.20
2019-01-30T15:56:16.365Z,1.20
2019-01-30T16:02:30.454Z,1.10
2019-01-30T16:05:00.200Z,1.00
2019-01-30T16:07:30.328Z,1.00
2019-01-30T16:10:00.417Z,1.00
2019-01-30T16:12:30.197Z,1.00
2019-01-30T16:14:59.913Z,1.00
2019-01-30T16:17:29.442Z,1.10
2019-01-30T16:19:59.189Z,1.10
2019-01-30T16:22:28.898Z,1.10
2019-01-30T16:25:08.719Z,1.10
2019-01-30T16:27:29.976Z,1.10
2019-01-30T16:29:59.499Z,1.10
2019-01-30T16:32:29.543Z,1.10
2019-01-30T16:34:59.111Z,1.10
2019-01-30T16:37:29.326Z,1.10
2019-01-30T16:40:04.449Z,1.20
2019-01-30T16:42:37.325Z,1.40
2019-01-30T16:45:09.523Z,1.20
2019-01-30T16:47:40.014Z,1.30
2019-01-30T16:50:11.605Z,1.20
2019-01-30T16:52:41.348Z,1.30
2019-01-30T16:55:11.515Z,1.20
2019-01-30T16:57:42.118Z,1.20
2019-01-30T17:00:15.451Z,1.10
2019-01-30T17:02:44.958Z,1.20
2019-01-30T17:05:18.211Z,1.20
2019-01-30T17:07:47.799Z,1.20
2019-01-30T17:10:17.887Z,1.10
2019-01-30T17:12:47.792Z,1.10
2019-01-30T17:15:19.430Z,1.10
2019-01-30T17:17:49.151Z,1.10
2019-01-30T17:20:20.864Z,1.20
2019-01-30T17:22:51.143Z,1.30
2019-01-30T17:25:21.198Z,1.30
2019-01-30T17:27:50.587Z,1.30
2019-01-30T17:30:43.747Z,1.30
2019-01-30T17:33:13.546Z,1.30
2019-01-30T17:35:43.906Z,1.10
2019-01-30T17:38:18.037Z,1.10
2019-01-30T17:40:50.869Z,1.10
2019-01-30T17:43:20.814Z,1.00
2019-01-30T17:45:50.189Z,1.00
2019-01-30T17:48:20.042Z,1.00
2019-01-30T17:50:49.422Z,0.90
2019-01-30T17:53:18.905Z,0.80
2019-01-30T17:56:07.534Z,0.80
2019-01-30T18:30:32.090Z,0.90
2019-01-30T18:33:03.113Z,0.90
2019-01-30T18:35:43.929Z,0.80
2019-01-30T18:38:18.757Z,0.90
2019-01-30T18:40:49.081Z,0.90
2019-01-30T18:43:41.863Z,0.80
2019-01-30T18:46:11.973Z,0.90
2019-01-30T18:48:45.304Z,0.70
2019-01-30T18:51:24.913Z,0.70
2019-01-30T18:53:57.234Z,0.70
2019-01-30T18:56:43.699Z,0.70
2019-01-30T18:59:40.784Z,0.80
2019-01-30T19:02:34.798Z,0.90
2019-01-30T19:05:15.376Z,0.70
2019-01-30T19:07:50.977Z,0.90
2019-01-30T19:10:24.328Z,0.90
2019-01-30T19:12:54.897Z,1.00
2019-01-30T19:15:26.656Z,1.00
2019-01-30T19:17:59.756Z,1.00
2019-01-30T19:20:51.495Z,1.00
2019-01-30T19:23:32.837Z,0.90
2019-01-30T19:26:08.421Z,0.90
2019-01-30T19:29:05.859Z,0.90
2019-01-30T19:31:50.640Z,1.00
2019-01-30T19:34:41.392Z,0.90
2019-01-30T19:37:16.623Z,1.00
2019-01-30T19:39:52.660Z,1.00
2019-01-30T19:42:36.318Z,1.10
2019-01-30T19:45:12.994Z,1.10
2019-01-30T19:50:54.030Z,1.00
2019-01-30T19:53:59.322Z,1.00
2019-01-30T19:57:06.251Z,1.00
2019-01-30T19:59:46.842Z,0.90
2019-01-30T20:02:19.148Z,0.90
2019-01-30T20:04:50.400Z,0.90
2019-01-30T20:07:25.630Z,0.90
2019-01-30T20:09:56.281Z,0.80
2019-01-30T20:12:35.070Z,0.80
2019-01-30T20:15:09.258Z,0.70
2019-01-30T20:17:41.896Z,0.70
2019-01-30T20:20:13.757Z,0.60
2019-01-30T20:22:45.637Z,0.60
2019-01-30T20:25:38.317Z,0.70
2019-01-30T20:28:09.020Z,0.70
2019-01-30T20:30:39.467Z,0.60
2019-01-30T20:33:14.338Z,0.50
2019-01-30T20:35:44.679Z,0.50
2019-01-30T20:38:14.805Z,0.50
2019-01-30T20:40:52.036Z,0.50
2019-01-30T20:43:28.184Z,0.60
2019-01-30T20:46:09.961Z,0.50
2019-01-30T20:48:46.940Z,0.50
2019-01-30T20:51:14.064Z,0.40
2019-01-30T20:57:08.965Z,0.40
2019-01-30T20:59:52.022Z,0.40
2019-01-30T21:02:31.081Z,0.30
2019-01-30T21:05:07.076Z,0.30
2019-01-30T21:07:43.879Z,0.20
2019-01-30T21:10:17.399Z,0.20
2019-01-30T21:12:54.055Z,0.10
2019-01-30T21:15:48.588Z,0.20
2019-01-30T21:18:18.407Z,0.10
2019-01-30T21:20:48.742Z,0.10
2019-01-30T21:23:19.002Z,0.10
2019-01-30T21:25:55.008Z,0.10
2019-01-30T21:28:27.935Z,0.00
2019-01-30T21:31:10.426Z,-0.10
2019-01-30T21:33:44.017Z,-0.20
2019-01-30T21:36:25.616Z,-0.10
2019-01-30T21:39:02.922Z,-0.10
2019-01-30T21:41:37.634Z,-0.20
2019-01-30T21:44:09.906Z,-0.20
2019-01-30T21:46:41.130Z,-0.20
2019-01-30T21:49:21.853Z,-0.20
2019-01-30T21:51:56.961Z,-0.20
2019-01-30T21:54:30.488Z,-0.20
2019-01-30T21:57:07.347Z,-0.20
2019-01-30T21:59:46.601Z,-0.20
2019-01-30T22:02:18.227Z,-0.40
2019-01-30T22:04:52.294Z,-0.40
2019-01-30T22:07:31.996Z,-0.40
2019-01-30T22:10:05.758Z,-0.40
2019-01-30T22:12:55.547Z,-0.40
2019-01-30T22:15:40.657Z,-0.40
2019-01-30T22:18:13.115Z,-0.40
2019-01-30T22:24:43.532Z,-0.50
2019-01-30T22:27:15.530Z,-0.50
2019-01-30T22:30:05.021Z,-0.50
2019-01-30T22:32:32.980Z,-0.50
2019-01-30T22:35:06.046Z,-0.50
2019-01-30T22:37:41.151Z,-0.60
2019-01-30T22:40:16.014Z,-0.60
2019-01-30T22:42:46.397Z,-0.80
2019-01-30T22:49:29.067Z,-0.80
2019-01-30T22:52:12.872Z,-0.70
2019-01-30T22:54:49.080Z,-0.70
2019-01-30T22:57:35.645Z,-0.70
2019-01-30T23:00:51.756Z,-0.80
2019-01-30T23:03:32.155Z,-0.90
2019-01-30T23:06:48.168Z,-0.90
2019-01-30T23:09:49.691Z,-0.90
2019-01-30T23:13:08.736Z,-0.90
2019-01-30T23:16:05.682Z,-0.80
2019-01-30T23:19:32.966Z,-0.90
2019-01-30T23:22:52.845Z,-1.10
2019-01-30T23:25:57.084Z,-1.20
2019-01-30T23:29:09.403Z,-1.20
2019-01-30T23:32:19.172Z,-1.00
2019-01-30T23:35:34.336Z,-1.00
2019-01-30T23:38:40.717Z,-1.00
2019-01-30T23:41:32.730Z,-1.10
2019-01-30T23:44:57.295Z,-1.20
2019-01-30T23:48:16.035Z,-1.30
2019-01-30T23:51:13.418Z,-1.50
2019-01-30T23:54:37.401Z,-1.40
2019-01-30T23:58:04.225Z,-1.30
